»·PEaware :: N5002T KONT-KSNA

N5002T :: KONT-KSNA

FLIGHT INFORMATION

Flight Status: Arrived
Operator: Privately registered:
United States
More flights under this callsign
Pilot: Hunter M. (19355)
Aircraft: CESSNA 172 SKYHAWK
(C172)
More flights by this aircraft type
Origin: KONT Ontario Intl
United States
Destination: KSNA John Wayne-Orange Co
United States
More flights between these airports :: More routes between these airports
Route: DIRECT
File this flight plan on PilotEdge
Remarks: Practice ILS vtf @ KSNA
Altitude:
(Current/Filed)
3,500ft
Speed:
(Current/Filed)
120kts
Departed: 10-Oct-18 10:44 AM
Arrived: 10-Oct-18 11:36 AM
Distance/Time
Traveled:
26nm/0:52
Distance/Time
To Go:
Arrived

Flight Plot

Page will automatically refresh every two minutes.


Map Options




Map Legend


Flown Route
Filed Route
Departure Airport
Arrival Airport
Navaid (VOR, NDB)
Fix

Horizontal Profiles

Position Reports

Time Latitude Longitude Heading Altitude Ground
Speed
10-Oct-18 10:19 34.052418 -117.601323 89 947ft 0kts
10-Oct-18 10:20 34.052418 -117.601323 89 947ft 0kts
10-Oct-18 10:21 34.052418 -117.601323 89 947ft 0kts
10-Oct-18 10:22 34.052418 -117.601323 89 947ft 0kts
10-Oct-18 10:23 34.052418 -117.601323 89 947ft 0kts
10-Oct-18 10:24 34.052418 -117.601323 89 947ft 0kts
10-Oct-18 10:25 34.052418 -117.601323 89 947ft 0kts
10-Oct-18 10:26 34.052418 -117.601323 89 947ft 0kts
10-Oct-18 10:27 34.052418 -117.601323 89 947ft 0kts
10-Oct-18 10:28 34.052418 -117.601323 89 947ft 0kts
10-Oct-18 10:29 34.052418 -117.601323 89 947ft 0kts
10-Oct-18 10:30 34.052418 -117.601323 89 947ft 0kts
10-Oct-18 10:31 34.052418 -117.601323 89 947ft 0kts
10-Oct-18 10:32 34.052418 -117.601323 89 947ft 0kts
10-Oct-18 10:33 34.052418 -117.601323 89 947ft 0kts
10-Oct-18 10:34 34.052548 -117.601267 332 947ft 1kts
10-Oct-18 10:35 34.052705 -117.601912 343 947ft 0kts
10-Oct-18 10:36 34.053443 -117.602829 337 947ft 2kts
10-Oct-18 10:37 34.053682 -117.600588 93 947ft 13kts
10-Oct-18 10:38 34.053684 -117.596125 90 947ft 13kts
10-Oct-18 10:39 34.053663 -117.591072 89 947ft 15kts
10-Oct-18 10:40 34.053677 -117.585897 89 947ft 15kts
10-Oct-18 10:41 34.053681 -117.582813 60 947ft 5kts
10-Oct-18 10:42 34.054194 -117.582710 354 947ft 0kts
10-Oct-18 10:43 34.054195 -117.582710 354 947ft 0kts
10-Oct-18 10:44 34.054196 -117.582710 354 947ft 0kts
10-Oct-18 10:45 34.054196 -117.582710 354 947ft 0kts
10-Oct-18 10:46 34.054964 -117.586677 269 947ft 60kts
10-Oct-18 10:47 34.051384 -117.612159 246 1674ft 85kts
10-Oct-18 10:48 34.037576 -117.633364 183 2445ft 89kts
10-Oct-18 10:49 34.011489 -117.638130 185 3040ft 107kts
10-Oct-18 10:50 33.982483 -117.651504 206 3005ft 113kts
10-Oct-18 10:51 33.955189 -117.670477 208 3016ft 113kts
10-Oct-18 10:52 33.928188 -117.689629 208 3015ft 113kts
10-Oct-18 10:53 33.900929 -117.708973 207 3013ft 113kts
10-Oct-18 10:54 33.886532 -117.737049 281 3039ft 115kts
10-Oct-18 10:55 33.891735 -117.773807 281 3508ft 110kts
10-Oct-18 10:56 33.897064 -117.811414 281 3515ft 116kts
10-Oct-18 10:57 33.883666 -117.813794 92 3544ft 99kts
10-Oct-18 10:58 33.881563 -117.779606 92 3512ft 102kts
10-Oct-18 10:59 33.879463 -117.745344 92 3513ft 102kts
10-Oct-18 11:00 33.855173 -117.745733 203 3520ft 115kts
10-Oct-18 11:01 33.827975 -117.764012 210 3617ft 104kts
10-Oct-18 11:02 33.805151 -117.784988 215 3237ft 94kts
10-Oct-18 11:03 33.784074 -117.800554 207 2391ft 82kts
10-Oct-18 11:04 33.764836 -117.812776 203 1732ft 76kts
10-Oct-18 11:05 33.745653 -117.824196 208 1466ft 74kts
10-Oct-18 11:06 33.726739 -117.836195 212 1285ft 84kts
10-Oct-18 11:07 33.709581 -117.847412 205 934ft 87kts
10-Oct-18 11:08 33.687799 -117.861094 207 251ft 74kts
10-Oct-18 11:09 33.667936 -117.873894 206 433ft 82kts
10-Oct-18 11:10 33.674965 -117.885303 344 987ft 78kts
10-Oct-18 11:11 33.695932 -117.890881 344 1667ft 77kts
10-Oct-18 11:12 33.718737 -117.896656 344 2404ft 89kts
10-Oct-18 11:13 33.751672 -117.905339 345 2409ft 106kts
10-Oct-18 11:14 33.772399 -117.892710 33 2781ft 101kts
10-Oct-18 11:15 33.796437 -117.872118 28 2999ft 106kts
10-Oct-18 11:16 33.818677 -117.854521 28 3008ft 91kts
10-Oct-18 11:17 33.839915 -117.837594 28 3012ft 92kts
10-Oct-18 11:18 33.861294 -117.820594 28 3012ft 92kts
10-Oct-18 11:19 33.882696 -117.803578 28 3012ft 92kts
10-Oct-18 11:20 33.904083 -117.786591 28 3012ft 92kts
10-Oct-18 11:21 33.925478 -117.769606 28 3013ft 92kts
10-Oct-18 11:22 33.946990 -117.752764 28 3016ft 92kts
10-Oct-18 11:23 33.968487 -117.735955 28 3016ft 92kts
10-Oct-18 11:24 33.958881 -117.724105 192 3040ft 91kts
10-Oct-18 11:25 33.928786 -117.729517 192 3014ft 93kts
10-Oct-18 11:26 33.907267 -117.733297 192 3013ft 93kts
10-Oct-18 11:27 33.881830 -117.738991 208 3019ft 90kts
10-Oct-18 11:28 33.858483 -117.751408 208 3012ft 91kts
10-Oct-18 11:29 33.835947 -117.765386 212 3013ft 91kts
10-Oct-18 11:30 33.810290 -117.782583 215 3008ft 84kts
10-Oct-18 11:31 33.794654 -117.793310 213 2590ft 78kts
10-Oct-18 11:32 33.775865 -117.805455 206 2076ft 72kts
10-Oct-18 11:33 33.758728 -117.815669 204 1799ft 72kts
10-Oct-18 11:34 33.740453 -117.826857 209 1430ft 73kts
10-Oct-18 11:35 33.722100 -117.839814 206 1208ft 82kts
10-Oct-18 11:36 33.703774 -117.850914 213 548ft 63kts
10-Oct-18 11:37 33.689007 -117.860263 210 284ft 61kts
10-Oct-18 11:38 33.678136 -117.867501 301 59ft 1kts
10-Oct-18 11:39 33.678480 -117.868772 231 59ft 5kts
10-Oct-18 11:40 33.675589 -117.870929 260 59ft 0kts
10-Oct-18 11:41 33.675475 -117.871657 302 59ft 3kts
10-Oct-18 11:42 33.675747 -117.871587 21 59ft 0kts

Navigation Log

Ident Type
Flight plan parsing failed, navigation log unavailable